createdAt,value
2022-11-07T00:13:24.076Z,6.60
2022-11-07T00:43:35.762Z,6.60
2022-11-07T01:13:48.153Z,6.90
2022-11-07T01:44:03.995Z,7.20
2022-11-07T02:14:17.825Z,7.60
2022-11-07T02:44:30.705Z,8.50
2022-11-07T03:14:41.658Z,10.50
2022-11-07T03:44:52.761Z,10.00
2022-11-07T04:15:19.990Z,10.50
2022-11-07T04:45:29.061Z,11.20
2022-11-07T05:15:38.134Z,11.30
2022-11-07T05:45:48.066Z,10.90
2022-11-07T06:16:08.598Z,10.70
2022-11-07T06:46:22.881Z,10.60
2022-11-07T07:16:31.946Z,11.00
2022-11-07T07:46:42.889Z,11.00
2022-11-07T08:16:53.685Z,11.00
2022-11-07T08:47:08.189Z,11.10
2022-11-07T09:17:20.762Z,11.30
2022-11-07T09:47:39.342Z,11.50
2022-11-07T10:17:57.240Z,12.80
2022-11-07T10:48:10.652Z,13.70
2022-11-07T11:18:23.623Z,13.90
2022-11-07T11:48:41.593Z,13.30
2022-11-07T12:19:07.506Z,13.10
2022-11-07T12:49:50.787Z,13.20
2022-11-07T13:20:11.737Z,12.50
2022-11-07T13:50:26.620Z,12.60
2022-11-07T14:20:48.710Z,11.80
2022-11-07T14:50:57.220Z,11.60
2022-11-07T15:21:06.304Z,11.10
2022-11-07T15:51:27.586Z,10.20
2022-11-07T16:21:48.039Z,9.70
2022-11-07T16:51:59.060Z,9.30
2022-11-07T17:22:08.177Z,8.90
2022-11-07T17:52:21.649Z,9.00
2022-11-07T18:22:31.756Z,9.00
2022-11-07T18:52:40.137Z,8.90
2022-11-07T19:22:54.651Z,8.20
2022-11-07T19:53:04.068Z,7.60
2022-11-07T20:23:15.965Z,7.30
2022-11-07T20:53:28.606Z,7.40
2022-11-07T21:23:40.868Z,7.60
2022-11-07T21:53:50.242Z,7.40
2022-11-07T22:24:02.102Z,7.20
2022-11-07T22:54:14.414Z,7.80
2022-11-07T23:24:24.077Z,7.30
2022-11-07T23:54:50.743Z,7.30
